createdAt,value
2023-05-09T00:01:56.542Z,102434.47
2023-05-09T00:04:59.292Z,102438.09
2023-05-09T00:08:03.385Z,102442.59
2023-05-09T00:11:06.349Z,102439.91
2023-05-09T00:14:09.177Z,102438.16
2023-05-09T00:17:15.695Z,102439.03
2023-05-09T00:20:18.585Z,102436.41
2023-05-09T00:23:22.733Z,102434.59
2023-05-09T00:26:26.313Z,102439.03
2023-05-09T00:29:29.030Z,102434.59
2023-05-09T00:32:32.099Z,102435.44
2023-05-09T00:35:34.904Z,102431.06
2023-05-09T00:38:39.289Z,102431.97
2023-05-09T00:41:42.299Z,102431.94
2023-05-09T00:44:45.110Z,102424.84
2023-05-09T00:47:47.985Z,102436.41
2023-05-09T00:50:53.047Z,102430.09
2023-05-09T00:53:57.367Z,102438.09
2023-05-09T00:57:00.425Z,102430.91
2023-05-09T01:00:04.409Z,102428.25
2023-05-09T01:03:07.754Z,102430.09
2023-05-09T01:06:17.860Z,102428.38
2023-05-09T01:09:29.062Z,102426.59
2023-05-09T01:12:38.658Z,102422.25
2023-05-09T01:15:47.937Z,102427.56
2023-05-09T01:18:56.219Z,102417.75
2023-05-09T01:22:02.098Z,102420.41
2023-05-09T01:25:21.860Z,102418.59
2023-05-09T01:28:41.446Z,102413.25
2023-05-09T01:31:47.796Z,102414.97
2023-05-09T01:34:53.117Z,102414.97
2023-05-09T01:37:56.259Z,102406.16
2023-05-09T01:41:00.870Z,102409.75
2023-05-09T01:44:06.880Z,102410.66
2023-05-09T01:47:12.798Z,102406.25
2023-05-09T01:50:17.955Z,102408.91
2023-05-09T01:53:22.956Z,102408.94
2023-05-09T01:56:26.692Z,102408.06
2023-05-09T01:59:31.171Z,102404.47
2023-05-09T02:02:35.858Z,102405.34
2023-05-09T02:05:40.166Z,102400.94
2023-05-09T02:08:44.340Z,102393.81
2023-05-09T02:11:47.811Z,102398.34
2023-05-09T02:14:50.667Z,102400.09
2023-05-09T02:17:54.872Z,102393.88
2023-05-09T02:20:57.740Z,102398.31
2023-05-09T02:24:01.024Z,102392.09
2023-05-09T02:27:07.173Z,102405.41
2023-05-09T02:30:15.182Z,102398.31
2023-05-09T02:33:19.457Z,102400.09
2023-05-09T02:36:23.485Z,102402.81
2023-05-09T02:39:26.412Z,102403.72
2023-05-09T02:42:30.226Z,102402.84
2023-05-09T02:45:33.098Z,102399.25
2023-05-09T02:48:37.836Z,102398.38
2023-05-09T02:51:41.413Z,102404.63
2023-05-09T02:54:44.237Z,102401.91
2023-05-09T02:57:47.046Z,102400.09
2023-05-09T03:00:50.045Z,102407.25
2023-05-09T03:03:54.431Z,102417.03
2023-05-09T03:06:57.995Z,102415.31
2023-05-09T03:10:07.182Z,102404.69
2023-05-09T03:13:10.405Z,102404.69
2023-05-09T03:16:15.078Z,102404.69
2023-05-09T03:19:19.660Z,102410.91
2023-05-09T03:22:22.489Z,102409.09
2023-05-09T03:25:33.760Z,102404.69
2023-05-09T03:28:36.549Z,102404.69
2023-05-09T03:31:41.310Z,102394.03
2023-05-09T03:34:45.498Z,102397.63
2023-05-09T03:37:48.604Z,102394.97
2023-05-09T03:40:51.809Z,102398.53
2023-05-09T03:43:54.742Z,102393.19
2023-05-09T03:46:57.531Z,102394.03
2023-05-09T03:50:02.829Z,102393.13
2023-05-09T03:53:06.457Z,102392.22
2023-05-09T03:56:11.360Z,102390.47
2023-05-09T03:59:21.363Z,102390.47
2023-05-09T04:02:24.667Z,102387.81
2023-05-09T04:05:29.289Z,102389.59
2023-05-09T04:08:33.203Z,102386.03
2023-05-09T04:11:37.397Z,102381.59
2023-05-09T04:14:48.119Z,102384.25
2023-05-09T04:17:52.709Z,102386.94
2023-05-09T04:20:58.020Z,102387.81
2023-05-09T04:24:01.295Z,102379.81
2023-05-09T04:27:11.423Z,102380.69
2023-05-09T04:30:15.261Z,102374.47
2023-05-09T04:33:19.064Z,102373.59
2023-05-09T04:36:23.283Z,102364.72
2023-05-09T04:39:26.726Z,102375.38
2023-05-09T04:42:38.779Z,102379.81
2023-05-09T04:45:41.693Z,102378.03
2023-05-09T04:48:44.536Z,102378.03
2023-05-09T04:51:48.781Z,102372.72
2023-05-09T04:54:52.174Z,102376.25
2023-05-09T04:57:57.623Z,102370.97
2023-05-09T05:01:01.032Z,102370.97
2023-05-09T05:04:04.204Z,102375.38
2023-05-09T05:07:10.221Z,102365.66
2023-05-09T05:10:13.503Z,102372.72
2023-05-09T05:13:19.102Z,102375.38
2023-05-09T05:16:25.702Z,102367.38
2023-05-09T05:19:28.666Z,102370.03
2023-05-09T05:22:33.718Z,102372.72
2023-05-09T05:25:36.645Z,102361.19
2023-05-09T05:28:39.496Z,102347.00
2023-05-09T05:31:42.786Z,102352.31
2023-05-09T05:34:45.685Z,102350.56
2023-05-09T05:37:50.340Z,102354.09
2023-05-09T05:40:53.823Z,102356.72
2023-05-09T05:43:57.514Z,102372.72
2023-05-09T05:47:00.908Z,102357.59
2023-05-09T05:50:08.308Z,102361.97
2023-05-09T05:53:14.194Z,102346.03
2023-05-09T05:56:17.254Z,102359.31
2023-05-09T05:59:20.382Z,102355.75
2023-05-09T06:02:23.459Z,102359.31
2023-05-09T06:05:26.593Z,102356.66
2023-05-09T06:08:30.855Z,102353.97
2023-05-09T06:11:34.396Z,102354.03
2023-05-09T06:14:37.668Z,102346.00
2023-05-09T06:17:40.817Z,102340.72
2023-05-09T06:20:43.626Z,102334.41
2023-05-09T06:24:05.905Z,102334.41
2023-05-09T06:27:10.999Z,102327.28
2023-05-09T06:30:25.619Z,102324.59
2023-05-09T06:33:29.319Z,102327.25
2023-05-09T06:36:32.322Z,102318.31
2023-05-09T06:39:36.436Z,102318.31
2023-05-09T06:42:39.155Z,102303.25
2023-05-09T06:45:41.859Z,102307.66
2023-05-09T06:48:44.609Z,102295.28
2023-05-09T06:51:47.534Z,102290.78
2023-05-09T06:54:51.678Z,102293.50
2023-05-09T06:57:54.551Z,102289.06
2023-05-09T07:00:57.408Z,102289.06
2023-05-09T07:04:00.373Z,102287.28
2023-05-09T07:07:03.151Z,102275.66
2023-05-09T07:10:11.740Z,102262.34
2023-05-09T07:13:14.979Z,102268.56
2023-05-09T07:16:18.419Z,102275.63
2023-05-09T07:19:21.230Z,102274.78
2023-05-09T07:22:24.085Z,102263.16
2023-05-09T07:25:28.221Z,102261.38
2023-05-09T07:28:31.362Z,102249.84
2023-05-09T07:31:36.677Z,102239.19
2023-05-09T07:34:40.152Z,102228.56
2023-05-09T07:37:42.934Z,102223.22
2023-05-09T07:40:47.067Z,102218.81
2023-05-09T07:43:49.784Z,102212.63
2023-05-09T07:46:52.549Z,102202.88
2023-05-09T07:49:55.373Z,102201.97
2023-05-09T07:52:58.164Z,102197.53
2023-05-09T07:56:02.300Z,102193.09
2023-05-09T07:59:05.202Z,102193.09
2023-05-09T08:02:08.022Z,102207.38
2023-05-09T08:05:11.503Z,102184.25
2023-05-09T08:08:14.445Z,102186.03
2023-05-09T08:11:18.572Z,102172.72
2023-05-09T08:14:21.372Z,102214.53
2023-05-09T08:17:24.147Z,102175.44
2023-05-09T08:20:26.944Z,102174.59
2023-05-09T08:23:30.278Z,102172.78
2023-05-09T08:26:34.556Z,102145.28
2023-05-09T08:29:37.359Z,102155.88
2023-05-09T08:32:40.564Z,102157.66
2023-05-09T08:35:43.483Z,102145.22
2023-05-09T08:38:46.389Z,102147.88
2023-05-09T08:41:51.430Z,102147.84
2023-05-09T08:44:54.366Z,102143.38
2023-05-09T08:47:58.118Z,102138.06
2023-05-09T08:51:02.170Z,102152.25
2023-05-09T08:54:06.133Z,102138.94
2023-05-09T08:57:10.349Z,102121.19
2023-05-09T09:00:15.968Z,102154.94
2023-05-09T09:03:21.293Z,102136.28
2023-05-09T09:06:25.876Z,102138.06
2023-05-09T09:09:29.205Z,102124.78
2023-05-09T09:12:35.416Z,102112.28
2023-05-09T09:15:39.533Z,102127.38
2023-05-09T09:18:42.393Z,102136.25
2023-05-09T09:21:46.802Z,102116.66
2023-05-09T09:24:49.643Z,102110.47
2023-05-09T09:27:53.796Z,102110.47
2023-05-09T09:30:56.883Z,102091.78
2023-05-09T09:34:03.563Z,102086.47
2023-05-09T09:37:07.494Z,102099.78
2023-05-09T09:40:12.306Z,102104.22
2023-05-09T09:43:16.745Z,102096.28
2023-05-09T09:46:19.858Z,102079.41
2023-05-09T09:49:24.546Z,102084.75
2023-05-09T09:52:27.422Z,102084.75
2023-05-09T09:55:30.847Z,102074.97
2023-05-09T09:58:35.198Z,102066.97
2023-05-09T10:01:55.404Z,102064.31
2023-05-09T10:04:58.243Z,102061.66
2023-05-09T10:08:02.031Z,102052.75
2023-05-09T10:11:05.533Z,102050.91
2023-05-09T10:14:09.776Z,102050.00
2023-05-09T10:17:15.970Z,102049.06
2023-05-09T10:20:19.246Z,102051.66
2023-05-09T10:23:24.065Z,102041.91
2023-05-09T10:26:31.675Z,102036.56
2023-05-09T10:29:38.904Z,102040.97
2023-05-09T10:32:47.924Z,102022.31
2023-05-09T10:35:52.429Z,102037.38
2023-05-09T10:38:56.613Z,102042.66
2023-05-09T10:42:00.682Z,102025.81
2023-05-09T10:45:05.515Z,102002.72
2023-05-09T10:48:09.925Z,102008.06
2023-05-09T10:51:14.104Z,102017.81
2023-05-09T10:54:30.571Z,102001.81
2023-05-09T10:57:33.801Z,102006.28
2023-05-09T11:00:42.400Z,101996.50
2023-05-09T11:03:56.506Z,101985.81
2023-05-09T11:07:00.541Z,102000.94
2023-05-09T11:10:11.111Z,101984.88
2023-05-09T11:13:14.523Z,101983.16
2023-05-09T11:16:18.703Z,101974.22
2023-05-09T11:19:36.322Z,101980.44
2023-05-09T11:22:41.522Z,101979.56
2023-05-09T11:25:47.277Z,101948.44
2023-05-09T11:28:57.468Z,101965.31
2023-05-09T11:32:08.555Z,101936.00
2023-05-09T11:35:14.712Z,101933.34
2023-05-09T11:38:22.699Z,101919.13
2023-05-09T11:41:25.643Z,101936.91
2023-05-09T11:44:30.877Z,101932.44
2023-05-09T11:47:37.994Z,101916.44
2023-05-09T11:50:41.628Z,101915.56
2023-05-09T11:53:46.870Z,101912.91
2023-05-09T11:56:49.663Z,101912.00
2023-05-09T11:59:52.474Z,101895.13
2023-05-09T12:02:56.806Z,101878.25
2023-05-09T12:06:00.124Z,101880.03
2023-05-09T12:09:02.996Z,101889.84
2023-05-09T12:12:12.822Z,101872.03
2023-05-09T12:15:17.074Z,101872.03
2023-05-09T12:18:22.158Z,101887.19
2023-05-09T12:21:24.965Z,101860.53
2023-05-09T12:24:28.481Z,101847.19
2023-05-09T12:27:33.032Z,101841.84
2023-05-09T12:30:36.042Z,101839.19
2023-05-09T12:33:40.695Z,101840.91
2023-05-09T12:36:50.563Z,101840.03
2023-05-09T12:40:04.185Z,101827.59
2023-05-09T12:43:08.304Z,101815.19
2023-05-09T12:46:11.134Z,101837.44
2023-05-09T12:49:22.496Z,101803.66
2023-05-09T12:52:25.304Z,101812.53
2023-05-09T12:55:28.094Z,101796.53
2023-05-09T12:58:32.707Z,101810.78
2023-05-09T13:01:37.020Z,101790.34
2023-05-09T13:04:41.336Z,101796.53
2023-05-09T13:07:45.534Z,101811.66
2023-05-09T13:10:48.418Z,101761.00
2023-05-09T13:13:51.216Z,101764.56
2023-05-09T13:16:54.831Z,101779.59
2023-05-09T13:19:58.962Z,101767.22
2023-05-09T13:23:02.135Z,101757.41
2023-05-09T13:26:04.922Z,101755.53
2023-05-09T13:29:07.865Z,101770.72
2023-05-09T13:32:10.579Z,101735.22
2023-05-09T13:35:14.849Z,101745.81
2023-05-09T13:38:17.649Z,101737.88
2023-05-09T13:41:24.028Z,101729.91
2023-05-09T13:44:26.884Z,101719.16
2023-05-09T13:47:29.736Z,101756.50
2023-05-09T13:50:33.881Z,101718.28
2023-05-09T13:53:38.836Z,101709.41
2023-05-09T13:56:42.825Z,101709.38
2023-05-09T13:59:45.681Z,101713.84
2023-05-09T14:02:48.536Z,101710.28
2023-05-09T14:05:52.769Z,101710.28
2023-05-09T14:08:56.312Z,101702.28
2023-05-09T14:11:59.414Z,101684.50
2023-05-09T14:15:02.176Z,101688.06
2023-05-09T14:18:05.377Z,101675.63
2023-05-09T14:21:09.796Z,101672.09
2023-05-09T14:24:15.625Z,101679.25
2023-05-09T14:27:19.156Z,101668.56
2023-05-09T14:30:21.993Z,101657.03
2023-05-09T14:33:24.765Z,101657.09
2023-05-09T14:36:29.599Z,101643.78
2023-05-09T14:39:32.351Z,101638.38
2023-05-09T14:42:35.539Z,101636.59
2023-05-09T14:45:38.407Z,101648.09
2023-05-09T14:48:41.159Z,101642.84
2023-05-09T14:51:45.316Z,101631.28
2023-05-09T14:54:48.128Z,101626.91
2023-05-09T14:57:51.150Z,101616.25
2023-05-09T15:00:54.625Z,101613.56
2023-05-09T15:03:57.488Z,101610.03
2023-05-09T15:07:01.657Z,101614.47
2023-05-09T15:10:04.797Z,101609.16
2023-05-09T15:13:07.659Z,101593.16
2023-05-09T15:16:10.777Z,101587.84
2023-05-09T15:19:14.497Z,101573.66
2023-05-09T15:22:18.673Z,101570.06
2023-05-09T15:25:22.141Z,101571.84
2023-05-09T15:28:24.893Z,101567.38
2023-05-09T15:31:27.759Z,101582.50
2023-05-09T15:34:30.554Z,101579.81
2023-05-09T15:37:35.852Z,101572.63
2023-05-09T15:40:40.344Z,101569.94
2023-05-09T15:43:43.373Z,101552.13
2023-05-09T15:46:46.117Z,101545.88
2023-05-09T15:49:49.204Z,101537.88
2023-05-09T15:52:53.551Z,101543.22
2023-05-09T15:55:56.826Z,101544.09
2023-05-09T15:58:59.628Z,101525.47
2023-05-09T16:02:02.520Z,101535.22
2023-05-09T16:05:05.791Z,101541.44
2023-05-09T16:08:10.043Z,101535.22
2023-05-09T16:11:12.915Z,101531.69
2023-05-09T16:14:15.725Z,101522.78
2023-05-09T16:17:18.573Z,101518.28
2023-05-09T16:20:21.939Z,101522.78
2023-05-09T16:23:26.553Z,101505.03
2023-05-09T16:26:29.525Z,101507.69
2023-05-09T16:29:32.815Z,101506.78
2023-05-09T16:32:36.052Z,101504.09
2023-05-09T16:35:38.849Z,101506.78
2023-05-09T16:38:43.014Z,101491.63
2023-05-09T16:41:45.746Z,101497.03
2023-05-09T16:44:48.948Z,101501.56
2023-05-09T16:47:53.288Z,101494.38
2023-05-09T16:50:56.099Z,101501.47
2023-05-09T16:54:00.500Z,101510.34
2023-05-09T16:57:03.289Z,101506.78
2023-05-09T17:00:08.175Z,101505.03
2023-05-09T17:03:11.038Z,101502.34
2023-05-09T17:06:13.955Z,101500.56
2023-05-09T17:09:18.205Z,101500.56
2023-05-09T17:12:20.953Z,101496.13
2023-05-09T17:15:24.185Z,101489.03
2023-05-09T17:18:36.841Z,101493.47
2023-05-09T17:21:41.635Z,101489.03
2023-05-09T17:24:45.806Z,101493.47
2023-05-09T17:27:49.300Z,101491.75
2023-05-09T17:30:52.124Z,101491.84
2023-05-09T17:33:54.913Z,101494.53
2023-05-09T17:36:57.687Z,101489.16
2023-05-09T17:40:02.174Z,101497.16
2023-05-09T17:43:04.984Z,101479.34
2023-05-09T17:46:08.060Z,101491.75
2023-05-09T17:49:13.772Z,101486.44
2023-05-09T17:52:16.579Z,101479.31
2023-05-09T17:55:21.020Z,101481.97
2023-05-09T17:58:24.250Z,101478.44
2023-05-09T18:01:27.102Z,101479.31
2023-05-09T18:04:31.441Z,101475.78
2023-05-09T18:07:34.737Z,101485.56
2023-05-09T18:10:38.845Z,101473.09
2023-05-09T18:13:41.665Z,101473.03
2023-05-09T18:16:44.528Z,101473.03
2023-05-09T18:19:47.359Z,101467.59
2023-05-09T18:22:50.114Z,101476.41
2023-05-09T18:25:55.039Z,101472.78
2023-05-09T18:28:57.821Z,101462.91
2023-05-09T18:32:01.528Z,101463.72
2023-05-09T18:35:05.384Z,101466.34
2023-05-09T18:38:08.202Z,101462.75
2023-05-09T18:41:13.692Z,101462.72
2023-05-09T18:44:16.518Z,101470.72
2023-05-09T18:47:19.337Z,101472.44
2023-05-09T18:50:22.248Z,101467.91
2023-05-09T18:53:26.102Z,101463.53
2023-05-09T18:56:30.269Z,101473.25
2023-05-09T18:59:33.093Z,101467.91
2023-05-09T19:02:35.896Z,101466.13
2023-05-09T19:05:38.717Z,101466.94
2023-05-09T19:08:41.946Z,101471.31
2023-05-09T19:11:46.102Z,101459.75
2023-05-09T19:14:48.999Z,101467.66
2023-05-09T19:17:51.895Z,101461.50
2023-05-09T19:20:54.725Z,101458.88
2023-05-09T19:23:57.501Z,101459.81
2023-05-09T19:27:02.015Z,101458.06
2023-05-09T19:30:05.554Z,101456.34
2023-05-09T19:33:08.339Z,101457.25
2023-05-09T19:36:11.136Z,101452.00
2023-05-09T19:39:13.919Z,101453.78
2023-05-09T19:42:18.061Z,101454.72
2023-05-09T19:45:20.987Z,101454.72
2023-05-09T19:48:23.748Z,101444.06
2023-05-09T19:51:26.473Z,101448.44
2023-05-09T19:54:29.216Z,101442.25
2023-05-09T19:57:33.377Z,101450.25
2023-05-09T20:00:38.775Z,101440.44
2023-05-09T20:03:43.399Z,101433.41
2023-05-09T20:06:46.751Z,101433.41
2023-05-09T20:09:49.731Z,101431.63
2023-05-09T20:12:55.047Z,101434.28
2023-05-09T20:15:58.954Z,101435.19
2023-05-09T20:19:03.802Z,101434.34
2023-05-09T20:22:06.604Z,101428.16
2023-05-09T20:25:09.927Z,101424.59
2023-05-09T20:28:16.367Z,101433.47
2023-05-09T20:31:19.161Z,101422.81
2023-05-09T20:34:24.478Z,101425.41
2023-05-09T20:37:27.204Z,101428.06
2023-05-09T20:40:30.000Z,101426.28
2023-05-09T20:43:34.164Z,101415.63
2023-05-09T20:46:37.044Z,101410.28
2023-05-09T20:49:39.818Z,101415.63
2023-05-09T20:52:42.627Z,101403.22
2023-05-09T20:55:45.377Z,101404.97
2023-05-09T20:58:49.560Z,101404.97
2023-05-09T21:01:52.596Z,101399.63
2023-05-09T21:04:55.518Z,101399.63
2023-05-09T21:07:58.249Z,101392.53
2023-05-09T21:11:01.053Z,101392.53
2023-05-09T21:14:05.321Z,101387.22
2023-05-09T21:17:08.184Z,101391.63
2023-05-09T21:20:11.815Z,101388.97
2023-05-09T21:23:14.899Z,101390.75
2023-05-09T21:26:17.770Z,101382.75
2023-05-09T21:29:22.267Z,101375.59
2023-05-09T21:32:25.270Z,101372.94
2023-05-09T21:35:28.236Z,101367.56
2023-05-09T21:38:31.015Z,101367.56
2023-05-09T21:41:34.051Z,101367.56
2023-05-09T21:44:38.219Z,101358.69
2023-05-09T21:47:41.098Z,101352.47
2023-05-09T21:50:45.947Z,101364.09
2023-05-09T21:53:48.704Z,101355.13
2023-05-09T21:56:51.497Z,101347.19
2023-05-09T21:59:56.180Z,101350.75
2023-05-09T22:02:59.393Z,101355.19
2023-05-09T22:06:02.313Z,101341.81
2023-05-09T22:09:05.699Z,101346.22
2023-05-09T22:12:08.940Z,101340.88
2023-05-09T22:15:13.498Z,101342.59
2023-05-09T22:18:16.227Z,101342.59
2023-05-09T22:21:19.102Z,101339.94
2023-05-09T22:24:22.183Z,101342.59
2023-05-09T22:27:24.928Z,101341.72
2023-05-09T22:30:29.136Z,101349.81
2023-05-09T22:33:32.128Z,101343.63
2023-05-09T22:36:34.863Z,101336.50
2023-05-09T22:39:37.613Z,101333.88
2023-05-09T22:42:40.424Z,101336.50
2023-05-09T22:45:44.933Z,101339.13
2023-05-09T22:48:47.756Z,101326.69
2023-05-09T22:51:50.481Z,101330.22
2023-05-09T22:54:53.288Z,101329.28
2023-05-09T22:57:56.050Z,101320.34
2023-05-09T23:01:00.168Z,101322.06
2023-05-09T23:04:02.970Z,101316.75
2023-05-09T23:07:05.690Z,101311.41
2023-05-09T23:10:09.145Z,101319.41
2023-05-09T23:13:12.339Z,101315.03
2023-05-09T23:16:16.871Z,101320.41
2023-05-09T23:19:19.687Z,101312.41
2023-05-09T23:22:22.426Z,101314.22
2023-05-09T23:25:25.157Z,101312.34
2023-05-09T23:28:27.931Z,101322.16
2023-05-09T23:31:32.242Z,101317.69
2023-05-09T23:34:36.175Z,101315.88
2023-05-09T23:37:38.989Z,101308.75
2023-05-09T23:40:44.854Z,101309.59
2023-05-09T23:43:47.659Z,101314.06
2023-05-09T23:46:51.850Z,101313.19
2023-05-09T23:49:54.660Z,101310.59
2023-05-09T23:52:57.468Z,101309.81
2023-05-09T23:56:00.181Z,101310.75
2023-05-09T23:59:02.910Z,101308.09
